sensor_id;sensor_type;location;lat;lon;timestamp;pressure;altitude;pressure_sealevel;temperature;humidity
64078;BME280;51039;49.696;10.808;2023-06-10T00:01:38;98155.53;;;14.89;84.43
64078;BME280;51039;49.696;10.808;2023-06-10T00:04:03;98156.34;;;14.90;84.49
64078;BME280;51039;49.696;10.808;2023-06-10T00:06:29;98150.00;;;14.79;84.81
64078;BME280;51039;49.696;10.808;2023-06-10T00:09:04;98146.75;;;14.77;84.69
64078;BME280;51039;49.696;10.808;2023-06-10T00:11:31;98156.28;;;14.73;84.63
64078;BME280;51039;49.696;10.808;2023-06-10T00:13:56;98148.28;;;14.73;85.06
64078;BME280;51039;49.696;10.808;2023-06-10T00:16:22;98147.47;;;14.72;85.17
64078;BME280;51039;49.696;10.808;2023-06-10T00:18:47;98145.16;;;14.76;85.31
64078;BME280;51039;49.696;10.808;2023-06-10T00:21:16;98149.31;;;14.72;85.44
64078;BME280;51039;49.696;10.808;2023-06-10T00:23:41;98150.81;;;14.68;85.67
64078;BME280;51039;49.696;10.808;2023-06-10T00:26:07;98152.81;;;14.61;85.69
64078;BME280;51039;49.696;10.808;2023-06-10T00:28:32;98148.38;;;14.54;85.98
64078;BME280;51039;49.696;10.808;2023-06-10T00:30:57;98153.59;;;14.49;86.57
64078;BME280;51039;49.696;10.808;2023-06-10T00:33:23;98149.53;;;14.47;86.51
64078;BME280;51039;49.696;10.808;2023-06-10T00:35:48;98153.94;;;14.41;86.98
64078;BME280;51039;49.696;10.808;2023-06-10T00:38:13;98151.63;;;14.33;87.60
64078;BME280;51039;49.696;10.808;2023-06-10T00:40:40;98156.38;;;14.31;87.84
64078;BME280;51039;49.696;10.808;2023-06-10T00:43:08;98158.13;;;14.37;87.89
64078;BME280;51039;49.696;10.808;2023-06-10T00:45:34;98156.50;;;14.36;87.66
64078;BME280;51039;49.696;10.808;2023-06-10T00:48:00;98154.88;;;14.35;87.64
64078;BME280;51039;49.696;10.808;2023-06-10T00:50:26;98152.13;;;14.30;87.88
64078;BME280;51039;49.696;10.808;2023-06-10T00:52:52;98149.78;;;14.22;88.27
64078;BME280;51039;49.696;10.808;2023-06-10T00:55:19;98151.06;;;14.07;88.79
64078;BME280;51039;49.696;10.808;2023-06-10T00:57:45;98151.16;;;14.01;88.98
64078;BME280;51039;49.696;10.808;2023-06-10T01:00:13;98144.09;;;14.06;89.66
64078;BME280;51039;49.696;10.808;2023-06-10T01:02:40;98140.97;;;14.09;89.37
64078;BME280;51039;49.696;10.808;2023-06-10T01:05:05;98150.81;;;14.09;89.96
64078;BME280;51039;49.696;10.808;2023-06-10T01:13:10;98146.28;;;13.98;89.64
64078;BME280;51039;49.696;10.808;2023-06-10T01:15:38;98148.13;;;13.97;89.79
64078;BME280;51039;49.696;10.808;2023-06-10T01:18:05;98154.38;;;13.91;90.50
64078;BME280;51039;49.696;10.808;2023-06-10T01:20:36;98147.66;;;13.88;90.83
64078;BME280;51039;49.696;10.808;2023-06-10T01:23:05;98155.31;;;13.85;91.22
64078;BME280;51039;49.696;10.808;2023-06-10T01:25:31;98156.00;;;13.80;91.41
64078;BME280;51039;49.696;10.808;2023-06-10T01:33:33;98155.34;;;13.66;92.13
64078;BME280;51039;49.696;10.808;2023-06-10T01:36:02;98157.69;;;13.63;93.05
64078;BME280;51039;49.696;10.808;2023-06-10T01:38:30;98156.84;;;13.62;92.57
64078;BME280;51039;49.696;10.808;2023-06-10T01:41:01;98153.16;;;13.63;92.85
64078;BME280;51039;49.696;10.808;2023-06-10T01:43:28;98157.69;;;13.63;92.15
64078;BME280;51039;49.696;10.808;2023-06-10T01:45:53;98158.13;;;13.60;91.83
64078;BME280;51039;49.696;10.808;2023-06-10T01:48:18;98157.28;;;13.47;92.50
64078;BME280;51039;49.696;10.808;2023-06-10T01:50:44;98151.63;;;13.44;92.35
64078;BME280;51039;49.696;10.808;2023-06-10T01:53:09;98147.31;;;13.43;92.37
64078;BME280;51039;49.696;10.808;2023-06-10T01:55:34;98144.41;;;13.32;92.52
64078;BME280;51039;49.696;10.808;2023-06-10T01:58:00;98145.84;;;13.28;93.01
64078;BME280;51039;49.696;10.808;2023-06-10T02:00:25;98144.91;;;13.23;93.64
64078;BME280;51039;49.696;10.808;2023-06-10T02:02:50;98152.94;;;13.16;93.47
64078;BME280;51039;49.696;10.808;2023-06-10T02:05:16;98155.19;;;13.19;93.86
64078;BME280;51039;49.696;10.808;2023-06-10T02:07:41;98148.00;;;13.20;93.27
64078;BME280;51039;49.696;10.808;2023-06-10T02:10:07;98151.34;;;13.15;93.49
64078;BME280;51039;49.696;10.808;2023-06-10T02:12:32;98154.00;;;13.15;93.02
64078;BME280;51039;49.696;10.808;2023-06-10T02:14:58;98153.31;;;13.20;92.94
64078;BME280;51039;49.696;10.808;2023-06-10T02:17:23;98162.25;;;13.25;92.63
64078;BME280;51039;49.696;10.808;2023-06-10T02:19:48;98153.84;;;13.28;92.54
64078;BME280;51039;49.696;10.808;2023-06-10T02:22:19;98153.09;;;13.21;92.56
64078;BME280;51039;49.696;10.808;2023-06-10T02:24:47;98149.72;;;13.14;92.52
64078;BME280;51039;49.696;10.808;2023-06-10T02:27:14;98153.94;;;13.03;92.97
64078;BME280;51039;49.696;10.808;2023-06-10T02:29:40;98153.00;;;12.98;93.39
64078;BME280;51039;49.696;10.808;2023-06-10T02:32:06;98148.25;;;13.00;93.76
64078;BME280;51039;49.696;10.808;2023-06-10T02:34:32;98156.81;;;13.02;94.08
64078;BME280;51039;49.696;10.808;2023-06-10T02:36:58;98159.03;;;13.05;94.26
64078;BME280;51039;49.696;10.808;2023-06-10T02:39:23;98163.75;;;13.03;94.37
64078;BME280;51039;49.696;10.808;2023-06-10T02:41:49;98163.16;;;13.01;94.25
64078;BME280;51039;49.696;10.808;2023-06-10T02:44:14;98160.59;;;12.94;94.30
64078;BME280;51039;49.696;10.808;2023-06-10T02:46:40;98160.00;;;12.92;94.64
64078;BME280;51039;49.696;10.808;2023-06-10T02:49:05;98163.47;;;12.92;94.80
64078;BME280;51039;49.696;10.808;2023-06-10T02:51:30;98175.81;;;12.87;94.99
64078;BME280;51039;49.696;10.808;2023-06-10T02:53:55;98168.63;;;12.87;95.18
64078;BME280;51039;49.696;10.808;2023-06-10T02:56:21;98178.09;;;12.83;95.07
64078;BME280;51039;49.696;10.808;2023-06-10T02:58:46;98168.94;;;12.79;95.31
64078;BME280;51039;49.696;10.808;2023-06-10T03:01:13;98178.56;;;12.80;95.75
64078;BME280;51039;49.696;10.808;2023-06-10T03:03:38;98171.81;;;12.77;95.57
64078;BME280;51039;49.696;10.808;2023-06-10T03:06:07;98163.63;;;12.79;95.66
64078;BME280;51039;49.696;10.808;2023-06-10T03:08:33;98163.63;;;12.79;95.05
64078;BME280;51039;49.696;10.808;2023-06-10T03:10:58;98162.81;;;12.79;95.20
64078;BME280;51039;49.696;10.808;2023-06-10T03:13:24;98162.03;;;12.78;94.85
64078;BME280;51039;49.696;10.808;2023-06-10T03:15:49;98162.44;;;12.75;94.92
64078;BME280;51039;49.696;10.808;2023-06-10T03:18:15;98162.06;;;12.71;94.90
64078;BME280;51039;49.696;10.808;2023-06-10T03:20:40;98162.59;;;12.80;95.00
64078;BME280;51039;49.696;10.808;2023-06-10T03:23:05;98169.31;;;12.83;95.07
64078;BME280;51039;49.696;10.808;2023-06-10T03:25:34;98172.56;;;12.85;95.24
64078;BME280;51039;49.696;10.808;2023-06-10T03:27:59;98164.38;;;12.86;95.49
64078;BME280;51039;49.696;10.808;2023-06-10T03:30:25;98172.50;;;12.91;95.50
64078;BME280;51039;49.696;10.808;2023-06-10T03:32:50;98169.75;;;12.98;96.04
64078;BME280;51039;49.696;10.808;2023-06-10T03:35:15;98170.50;;;13.05;95.85
64078;BME280;51039;49.696;10.808;2023-06-10T03:37:42;98168.91;;;13.16;95.43
64078;BME280;51039;49.696;10.808;2023-06-10T03:40:07;98174.59;;;13.20;94.84
64078;BME280;51039;49.696;10.808;2023-06-10T03:42:34;98169.88;;;13.22;94.66
64078;BME280;51039;49.696;10.808;2023-06-10T03:45:02;98167.28;;;13.33;94.36
64078;BME280;51039;49.696;10.808;2023-06-10T03:47:33;98169.72;;;13.35;94.14
64078;BME280;51039;49.696;10.808;2023-06-10T03:50:00;98175.97;;;13.59;92.76
64078;BME280;51039;49.696;10.808;2023-06-10T03:52:25;98177.16;;;13.45;92.47
64078;BME280;51039;49.696;10.808;2023-06-10T03:54:50;98171.94;;;13.68;92.06
64078;BME280;51039;49.696;10.808;2023-06-10T03:57:15;98173.50;;;13.88;91.01
64078;BME280;51039;49.696;10.808;2023-06-10T03:59:41;98171.44;;;14.13;89.73
64078;BME280;51039;49.696;10.808;2023-06-10T04:02:06;98170.41;;;14.38;88.58
64078;BME280;51039;49.696;10.808;2023-06-10T04:04:33;98171.00;;;14.64;87.53
64078;BME280;51039;49.696;10.808;2023-06-10T04:06:59;98181.16;;;14.90;86.75
64078;BME280;51039;49.696;10.808;2023-06-10T04:09:24;98174.78;;;15.32;85.13
64078;BME280;51039;49.696;10.808;2023-06-10T04:11:50;98165.06;;;16.17;81.25
64078;BME280;51039;49.696;10.808;2023-06-10T04:14:16;98168.25;;;17.14;75.42
64078;BME280;51039;49.696;10.808;2023-06-10T04:16:41;98162.47;;;18.04;71.53
64078;BME280;51039;49.696;10.808;2023-06-10T04:19:07;98163.59;;;18.93;67.95
64078;BME280;51039;49.696;10.808;2023-06-10T04:21:33;98155.94;;;19.28;65.29
64078;BME280;51039;49.696;10.808;2023-06-10T04:23:58;98156.06;;;19.99;63.83
64078;BME280;51039;49.696;10.808;2023-06-10T04:26:23;98160.81;;;20.85;60.35
64078;BME280;51039;49.696;10.808;2023-06-10T04:28:50;98166.28;;;21.24;59.54
64078;BME280;51039;49.696;10.808;2023-06-10T04:31:15;98167.34;;;21.78;57.34
64078;BME280;51039;49.696;10.808;2023-06-10T04:33:40;98166.66;;;22.60;54.76
64078;BME280;51039;49.696;10.808;2023-06-10T04:36:06;98170.91;;;22.66;54.61
64078;BME280;51039;49.696;10.808;2023-06-10T04:38:34;98154.28;;;23.26;53.32
64078;BME280;51039;49.696;10.808;2023-06-10T04:41:00;98163.00;;;23.80;51.30
64078;BME280;51039;49.696;10.808;2023-06-10T04:43:25;98162.94;;;23.85;49.75
64078;BME280;51039;49.696;10.808;2023-06-10T04:45:50;98167.09;;;24.43;48.77
64078;BME280;51039;49.696;10.808;2023-06-10T04:48:16;98170.97;;;24.70;48.64
64078;BME280;51039;49.696;10.808;2023-06-10T04:50:41;98170.09;;;25.02;47.30
64078;BME280;51039;49.696;10.808;2023-06-10T04:53:06;98178.41;;;25.20;46.77
64078;BME280;51039;49.696;10.808;2023-06-10T04:55:32;98174.72;;;25.66;45.77
64078;BME280;51039;49.696;10.808;2023-06-10T04:57:59;98176.47;;;26.07;44.63
64078;BME280;51039;49.696;10.808;2023-06-10T05:00:24;98178.31;;;26.20;44.22
64078;BME280;51039;49.696;10.808;2023-06-10T05:02:49;98162.50;;;26.54;43.36
64078;BME280;51039;49.696;10.808;2023-06-10T05:05:16;98176.06;;;26.68;43.32
64078;BME280;51039;49.696;10.808;2023-06-10T05:07:42;98179.78;;;27.29;41.84
64078;BME280;51039;49.696;10.808;2023-06-10T05:10:07;98183.69;;;27.06;42.30
64078;BME280;51039;49.696;10.808;2023-06-10T05:12:33;98195.31;;;27.64;41.03
64078;BME280;51039;49.696;10.808;2023-06-10T05:14:58;98198.09;;;27.90;39.72
64078;BME280;51039;49.696;10.808;2023-06-10T05:17:23;98193.91;;;27.66;39.76
64078;BME280;51039;49.696;10.808;2023-06-10T05:19:50;98200.94;;;27.85;38.90
64078;BME280;51039;49.696;10.808;2023-06-10T05:22:16;98202.28;;;26.72;41.15
64078;BME280;51039;49.696;10.808;2023-06-10T05:24:42;98203.63;;;26.92;41.92
64078;BME280;51039;49.696;10.808;2023-06-10T05:27:09;98199.19;;;27.05;41.45
64078;BME280;51039;49.696;10.808;2023-06-10T05:29:34;98191.81;;;28.24;39.79
64078;BME280;51039;49.696;10.808;2023-06-10T05:32:00;98195.19;;;28.77;37.91
64078;BME280;51039;49.696;10.808;2023-06-10T05:34:28;98199.03;;;28.85;37.74
64078;BME280;51039;49.696;10.808;2023-06-10T05:36:55;98203.91;;;28.70;37.99
64078;BME280;51039;49.696;10.808;2023-06-10T05:39:21;98197.22;;;29.27;37.03
64078;BME280;51039;49.696;10.808;2023-06-10T05:41:46;98207.69;;;29.46;36.12
64078;BME280;51039;49.696;10.808;2023-06-10T05:44:11;98199.94;;;28.59;37.73
64078;BME280;51039;49.696;10.808;2023-06-10T05:46:37;98195.50;;;29.73;34.96
64078;BME280;51039;49.696;10.808;2023-06-10T05:49:02;98200.72;;;30.21;34.37
64078;BME280;51039;49.696;10.808;2023-06-10T05:51:27;98195.88;;;31.09;32.85
64078;BME280;51039;49.696;10.808;2023-06-10T05:53:53;98203.59;;;30.70;33.35
64078;BME280;51039;49.696;10.808;2023-06-10T05:56:19;98201.28;;;30.47;34.15
64078;BME280;51039;49.696;10.808;2023-06-10T05:58:47;98198.22;;;31.60;32.47
64078;BME280;51039;49.696;10.808;2023-06-10T06:01:13;98205.16;;;32.10;31.76
64078;BME280;51039;49.696;10.808;2023-06-10T06:03:38;98198.22;;;31.72;32.56
64078;BME280;51039;49.696;10.808;2023-06-10T06:06:03;98199.34;;;32.12;31.70
64078;BME280;51039;49.696;10.808;2023-06-10T06:08:29;98202.97;;;33.23;30.40
64078;BME280;51039;49.696;10.808;2023-06-10T06:10:54;98205.44;;;34.42;28.56
64078;BME280;51039;49.696;10.808;2023-06-10T06:13:20;98208.75;;;34.28;28.48
64078;BME280;51039;49.696;10.808;2023-06-10T06:15:45;98207.09;;;34.47;28.39
64078;BME280;51039;49.696;10.808;2023-06-10T06:18:10;98205.13;;;35.16;27.51
64078;BME280;51039;49.696;10.808;2023-06-10T06:20:36;98204.56;;;35.57;27.27
64078;BME280;51039;49.696;10.808;2023-06-10T06:23:01;98205.69;;;35.26;28.01
64078;BME280;51039;49.696;10.808;2023-06-10T06:25:26;98204.59;;;36.21;27.00
64078;BME280;51039;49.696;10.808;2023-06-10T06:27:52;98205.44;;;36.66;26.06
64078;BME280;51039;49.696;10.808;2023-06-10T06:30:17;98210.34;;;36.09;25.98
64078;BME280;51039;49.696;10.808;2023-06-10T06:32:42;98210.47;;;35.06;27.49
64078;BME280;51039;49.696;10.808;2023-06-10T06:35:08;98213.59;;;34.15;28.63
64078;BME280;51039;49.696;10.808;2023-06-10T06:37:33;98212.78;;;34.15;29.03
64078;BME280;51039;49.696;10.808;2023-06-10T06:39:59;98205.88;;;35.13;28.70
64078;BME280;51039;49.696;10.808;2023-06-10T06:42:25;98207.03;;;35.96;27.13
64078;BME280;51039;49.696;10.808;2023-06-10T06:44:50;98203.31;;;36.97;25.81
64078;BME280;51039;49.696;10.808;2023-06-10T06:47:15;98210.19;;;37.18;25.88
64078;BME280;51039;49.696;10.808;2023-06-10T06:49:44;98201.97;;;35.41;26.92
64078;BME280;51039;49.696;10.808;2023-06-10T06:52:10;98195.81;;;33.54;29.09
64078;BME280;51039;49.696;10.808;2023-06-10T06:54:35;98205.41;;;34.85;28.07
64078;BME280;51039;49.696;10.808;2023-06-10T06:57:00;98202.84;;;36.47;26.06
64078;BME280;51039;49.696;10.808;2023-06-10T06:59:26;98204.53;;;35.27;26.65
64078;BME280;51039;49.696;10.808;2023-06-10T07:01:51;98206.50;;;35.03;27.31
64078;BME280;51039;49.696;10.808;2023-06-10T07:04:19;98209.06;;;34.46;28.05
64078;BME280;51039;49.696;10.808;2023-06-10T07:06:46;98203.50;;;33.29;29.10
64078;BME280;51039;49.696;10.808;2023-06-10T07:09:11;98201.97;;;32.52;29.89
64078;BME280;51039;49.696;10.808;2023-06-10T07:11:37;98207.16;;;32.85;29.90
64078;BME280;51039;49.696;10.808;2023-06-10T07:14:02;98202.91;;;32.72;30.19
64078;BME280;51039;49.696;10.808;2023-06-10T07:16:27;98200.22;;;32.76;29.82
64078;BME280;51039;49.696;10.808;2023-06-10T07:18:53;98206.38;;;32.41;31.00
64078;BME280;51039;49.696;10.808;2023-06-10T07:21:18;98203.88;;;31.79;31.53
64078;BME280;51039;49.696;10.808;2023-06-10T07:23:44;98210.50;;;32.63;30.23
64078;BME280;51039;49.696;10.808;2023-06-10T07:26:09;98203.00;;;32.92;30.05
64078;BME280;51039;49.696;10.808;2023-06-10T07:28:36;98214.63;;;31.72;31.22
64078;BME280;51039;49.696;10.808;2023-06-10T07:31:02;98207.41;;;31.15;32.10
64078;BME280;51039;49.696;10.808;2023-06-10T07:33:28;98210.50;;;30.22;34.02
64078;BME280;51039;49.696;10.808;2023-06-10T07:35:53;98215.47;;;31.23;32.33
64078;BME280;51039;49.696;10.808;2023-06-10T07:38:18;98203.97;;;31.55;31.34
64078;BME280;51039;49.696;10.808;2023-06-10T07:40:44;98214.69;;;31.23;32.30
64078;BME280;51039;49.696;10.808;2023-06-10T07:43:09;98210.81;;;31.11;32.31
64078;BME280;51039;49.696;10.808;2023-06-10T07:45:34;98197.91;;;31.37;31.39
64078;BME280;51039;49.696;10.808;2023-06-10T07:47:59;98203.84;;;31.26;31.41
64078;BME280;51039;49.696;10.808;2023-06-10T07:50:25;98201.31;;;31.58;31.43
64078;BME280;51039;49.696;10.808;2023-06-10T07:52:50;98204.75;;;33.00;29.64
64078;BME280;51039;49.696;10.808;2023-06-10T07:55:15;98201.88;;;32.48;30.56
64078;BME280;51039;49.696;10.808;2023-06-10T07:57:41;98199.41;;;32.43;30.29
64078;BME280;51039;49.696;10.808;2023-06-10T08:00:06;98206.25;;;32.65;29.79
64078;BME280;51039;49.696;10.808;2023-06-10T08:02:33;98202.81;;;33.52;29.51
64078;BME280;51039;49.696;10.808;2023-06-10T08:04:58;98207.16;;;33.17;29.25
64078;BME280;51039;49.696;10.808;2023-06-10T08:07:23;98198.81;;;31.94;30.59
64078;BME280;51039;49.696;10.808;2023-06-10T08:09:50;98191.03;;;33.16;29.17
64078;BME280;51039;49.696;10.808;2023-06-10T08:12:15;98198.94;;;32.85;29.86
64078;BME280;51039;49.696;10.808;2023-06-10T08:14:40;98194.47;;;32.05;30.50
64078;BME280;51039;49.696;10.808;2023-06-10T08:17:06;98200.50;;;33.02;29.03
64078;BME280;51039;49.696;10.808;2023-06-10T08:19:31;98200.06;;;33.00;29.38
64078;BME280;51039;49.696;10.808;2023-06-10T08:21:57;98197.16;;;34.19;27.69
64078;BME280;51039;49.696;10.808;2023-06-10T08:24:22;98194.53;;;33.68;29.58
64078;BME280;51039;49.696;10.808;2023-06-10T08:26:47;98202.75;;;32.53;30.16
64078;BME280;51039;49.696;10.808;2023-06-10T08:29:12;98194.09;;;32.06;30.50
64078;BME280;51039;49.696;10.808;2023-06-10T08:31:40;98204.59;;;32.33;29.77
64078;BME280;51039;49.696;10.808;2023-06-10T08:34:09;98195.72;;;33.67;28.57
64078;BME280;51039;49.696;10.808;2023-06-10T08:36:34;98193.63;;;32.77;29.23
64078;BME280;51039;49.696;10.808;2023-06-10T08:39:00;98204.28;;;33.30;28.60
64078;BME280;51039;49.696;10.808;2023-06-10T08:41:26;98199.09;;;34.38;27.72
64078;BME280;51039;49.696;10.808;2023-06-10T08:43:54;98189.03;;;35.45;25.95
64078;BME280;51039;49.696;10.808;2023-06-10T08:46:32;98194.88;;;34.44;27.65
64078;BME280;51039;49.696;10.808;2023-06-10T08:49:00;98188.91;;;32.77;29.56
64078;BME280;51039;49.696;10.808;2023-06-10T08:51:29;98193.03;;;32.39;30.14
64078;BME280;51039;49.696;10.808;2023-06-10T08:53:59;98189.00;;;32.05;30.87
64078;BME280;51039;49.696;10.808;2023-06-10T08:56:27;98190.03;;;32.44;30.17
64078;BME280;51039;49.696;10.808;2023-06-10T08:58:55;98188.19;;;33.12;29.45
64078;BME280;51039;49.696;10.808;2023-06-10T09:01:21;98188.72;;;33.18;28.63
64078;BME280;51039;49.696;10.808;2023-06-10T09:03:48;98173.03;;;32.23;30.08
64078;BME280;51039;49.696;10.808;2023-06-10T09:06:14;98173.81;;;31.42;30.95
64078;BME280;51039;49.696;10.808;2023-06-10T09:08:40;98178.94;;;31.56;31.06
64078;BME280;51039;49.696;10.808;2023-06-10T09:11:07;98175.94;;;31.74;31.62
64078;BME280;51039;49.696;10.808;2023-06-10T09:13:32;98175.09;;;31.33;31.61
64078;BME280;51039;49.696;10.808;2023-06-10T09:15:57;98166.81;;;31.69;31.18
64078;BME280;51039;49.696;10.808;2023-06-10T09:18:26;98167.16;;;32.08;30.98
64078;BME280;51039;49.696;10.808;2023-06-10T09:20:52;98159.66;;;32.21;30.49
64078;BME280;51039;49.696;10.808;2023-06-10T09:23:18;98168.53;;;32.02;30.32
64078;BME280;51039;49.696;10.808;2023-06-10T09:25:43;98163.56;;;31.92;30.42
64078;BME280;51039;49.696;10.808;2023-06-10T09:28:12;98149.69;;;32.29;30.51
64078;BME280;51039;49.696;10.808;2023-06-10T09:30:38;98159.03;;;31.84;30.83
64078;BME280;51039;49.696;10.808;2023-06-10T09:33:09;98154.00;;;31.33;30.92
64078;BME280;51039;49.696;10.808;2023-06-10T09:35:37;98152.81;;;30.94;32.13
64078;BME280;51039;49.696;10.808;2023-06-10T09:38:10;98158.47;;;32.06;31.12
64078;BME280;51039;49.696;10.808;2023-06-10T09:40:47;98151.25;;;31.45;31.20
64078;BME280;51039;49.696;10.808;2023-06-10T09:43:16;98151.72;;;31.35;31.83
64078;BME280;51039;49.696;10.808;2023-06-10T09:45:41;98149.63;;;31.97;30.62
64078;BME280;51039;49.696;10.808;2023-06-10T09:48:08;98150.91;;;31.87;30.55
64078;BME280;51039;49.696;10.808;2023-06-10T09:50:33;98158.81;;;31.77;30.87
64078;BME280;51039;49.696;10.808;2023-06-10T09:52:59;98158.59;;;31.69;31.33
64078;BME280;51039;49.696;10.808;2023-06-10T09:55:27;98150.66;;;32.21;30.42
64078;BME280;51039;49.696;10.808;2023-06-10T09:57:53;98155.53;;;32.43;30.88
64078;BME280;51039;49.696;10.808;2023-06-10T10:00:19;98151.94;;;31.83;31.71
64078;BME280;51039;49.696;10.808;2023-06-10T10:02:48;98140.50;;;31.00;31.89
64078;BME280;51039;49.696;10.808;2023-06-10T10:05:15;98152.06;;;30.47;33.01
64078;BME280;51039;49.696;10.808;2023-06-10T10:07:42;98149.78;;;30.04;34.64
64078;BME280;51039;49.696;10.808;2023-06-10T10:10:08;98150.53;;;28.99;35.57
64078;BME280;51039;49.696;10.808;2023-06-10T10:12:35;98149.78;;;28.51;36.35
64078;BME280;51039;49.696;10.808;2023-06-10T10:15:02;98145.53;;;28.15;37.55
64078;BME280;51039;49.696;10.808;2023-06-10T10:17:32;98150.91;;;30.36;34.14
64078;BME280;51039;49.696;10.808;2023-06-10T10:20:04;98131.00;;;30.48;33.16
64078;BME280;51039;49.696;10.808;2023-06-10T10:22:37;98151.97;;;30.10;34.01
64078;BME280;51039;49.696;10.808;2023-06-10T10:25:05;98144.94;;;30.92;33.05
64078;BME280;51039;49.696;10.808;2023-06-10T10:27:36;98141.44;;;32.13;30.80
64078;BME280;51039;49.696;10.808;2023-06-10T10:30:09;98139.09;;;30.57;33.33
64078;BME280;51039;49.696;10.808;2023-06-10T10:32:55;98139.16;;;29.48;35.16
64078;BME280;51039;49.696;10.808;2023-06-10T10:35:24;98144.47;;;29.23;35.32
64078;BME280;51039;49.696;10.808;2023-06-10T10:37:51;98132.84;;;28.75;36.42
64078;BME280;51039;49.696;10.808;2023-06-10T10:40:18;98137.53;;;28.10;36.94
64078;BME280;51039;49.696;10.808;2023-06-10T10:42:45;98138.81;;;27.69;37.54
64078;BME280;51039;49.696;10.808;2023-06-10T10:45:12;98137.53;;;27.58;37.51
64078;BME280;51039;49.696;10.808;2023-06-10T10:47:38;98133.06;;;27.79;37.83
64078;BME280;51039;49.696;10.808;2023-06-10T10:50:14;98132.91;;;27.50;37.92
64078;BME280;51039;49.696;10.808;2023-06-10T10:52:51;98137.72;;;27.53;38.21
64078;BME280;51039;49.696;10.808;2023-06-10T10:55:24;98144.25;;;28.22;37.55
64078;BME280;51039;49.696;10.808;2023-06-10T10:57:57;98137.31;;;28.80;36.78
64078;BME280;51039;49.696;10.808;2023-06-10T11:00:31;98136.19;;;29.11;36.87
64078;BME280;51039;49.696;10.808;2023-06-10T11:03:09;98136.63;;;29.22;36.67
64078;BME280;51039;49.696;10.808;2023-06-10T11:05:42;98141.59;;;29.20;36.21
64078;BME280;51039;49.696;10.808;2023-06-10T11:08:12;98132.31;;;29.42;35.44
64078;BME280;51039;49.696;10.808;2023-06-10T11:10:39;98137.91;;;29.87;35.71
64078;BME280;51039;49.696;10.808;2023-06-10T11:13:07;98140.06;;;29.94;35.24
64078;BME280;51039;49.696;10.808;2023-06-10T11:15:40;98140.03;;;28.80;36.86
64078;BME280;51039;49.696;10.808;2023-06-10T11:18:30;98129.13;;;28.42;37.23
64078;BME280;51039;49.696;10.808;2023-06-10T11:21:01;98135.44;;;28.72;37.10
64078;BME280;51039;49.696;10.808;2023-06-10T11:26:10;98139.91;;;28.20;37.92
64078;BME280;51039;49.696;10.808;2023-06-10T11:28:36;98136.75;;;27.57;39.07
64078;BME280;51039;49.696;10.808;2023-06-10T11:31:02;98141.56;;;27.78;38.55
64078;BME280;51039;49.696;10.808;2023-06-10T11:33:27;98138.34;;;27.50;38.40
64078;BME280;51039;49.696;10.808;2023-06-10T11:35:53;98138.50;;;27.53;38.72
64078;BME280;51039;49.696;10.808;2023-06-10T11:38:19;98129.38;;;27.58;38.72
64078;BME280;51039;49.696;10.808;2023-06-10T11:40:50;98138.00;;;28.12;37.84
64078;BME280;51039;49.696;10.808;2023-06-10T11:43:19;98136.34;;;28.29;38.00
64078;BME280;51039;49.696;10.808;2023-06-10T11:45:45;98130.31;;;28.14;37.96
64078;BME280;51039;49.696;10.808;2023-06-10T11:48:11;98122.66;;;27.99;38.38
64078;BME280;51039;49.696;10.808;2023-06-10T11:50:37;98126.81;;;28.14;37.76
64078;BME280;51039;49.696;10.808;2023-06-10T11:53:02;98124.28;;;27.56;39.01
64078;BME280;51039;49.696;10.808;2023-06-10T11:56:01;98122.84;;;28.58;38.04
64078;BME280;51039;49.696;10.808;2023-06-10T11:58:20;98126.25;;;29.57;35.21
64078;BME280;51039;49.696;10.808;2023-06-10T12:00:53;98138.66;;;29.75;34.17
64078;BME280;51039;49.696;10.808;2023-06-10T12:03:22;98126.75;;;29.92;33.88
64078;BME280;51039;49.696;10.808;2023-06-10T12:05:55;98122.34;;;30.33;34.37
64078;BME280;51039;49.696;10.808;2023-06-10T12:08:22;98126.09;;;30.41;33.83
64078;BME280;51039;49.696;10.808;2023-06-10T12:10:48;98117.28;;;29.78;34.59
64078;BME280;51039;49.696;10.808;2023-06-10T12:13:13;98121.50;;;29.66;35.02
64078;BME280;51039;49.696;10.808;2023-06-10T12:15:39;98119.59;;;30.00;33.92
64078;BME280;51039;49.696;10.808;2023-06-10T12:18:04;98116.91;;;29.79;35.28
64078;BME280;51039;49.696;10.808;2023-06-10T12:20:30;98119.84;;;30.07;34.80
64078;BME280;51039;49.696;10.808;2023-06-10T12:23:00;98115.53;;;29.73;35.05
64078;BME280;51039;49.696;10.808;2023-06-10T12:25:33;98122.91;;;30.06;35.16
64078;BME280;51039;49.696;10.808;2023-06-10T12:27:58;98120.34;;;30.22;34.37
64078;BME280;51039;49.696;10.808;2023-06-10T12:30:24;98118.91;;;30.37;34.04
64078;BME280;51039;49.696;10.808;2023-06-10T12:32:52;98117.00;;;30.49;33.67
64078;BME280;51039;49.696;10.808;2023-06-10T12:35:22;98115.88;;;30.05;35.17
64078;BME280;51039;49.696;10.808;2023-06-10T12:38:02;98112.44;;;30.08;34.29
64078;BME280;51039;49.696;10.808;2023-06-10T12:40:36;98115.53;;;29.73;34.75
64078;BME280;51039;49.696;10.808;2023-06-10T12:43:04;98114.53;;;29.35;35.95
64078;BME280;51039;49.696;10.808;2023-06-10T12:50:35;98106.69;;;29.55;36.31
64078;BME280;51039;49.696;10.808;2023-06-10T12:53:02;98101.06;;;29.09;36.14
64078;BME280;51039;49.696;10.808;2023-06-10T12:55:28;98104.56;;;29.40;35.88
64078;BME280;51039;49.696;10.808;2023-06-10T12:57:53;98097.34;;;29.77;34.34
64078;BME280;51039;49.696;10.808;2023-06-10T13:00:20;98090.78;;;29.90;33.71
64078;BME280;51039;49.696;10.808;2023-06-10T13:02:45;98094.19;;;29.03;35.14
64078;BME280;51039;49.696;10.808;2023-06-10T13:05:11;98101.56;;;28.82;35.65
64078;BME280;51039;49.696;10.808;2023-06-10T13:07:36;98094.03;;;28.78;35.39